Time;durP1;ratioP1;P1;durP2;ratioP2;P2;SDS_P1;SDS_P2;PMS_P1;PMS_P2;Temp;Humidity;BMP_temperature;BMP_pressure;BME280_temperature;BME280_humidity;BME280_pressure;Samples;Min_cycle;Max_cycle;Signal;HPM_P1;HPM_P2
2022/10/29 00:02:02;;;;;;;31.70;10.97;;;;;;;;;;5077592;28;20334;-65
2022/10/29 00:04:28;;;;;;;16.50;9.50;;;;;;;;;;5095253;28;20199;-66
2022/10/29 00:06:54;;;;;;;25.57;9.77;;;;;;;;;;5095763;28;20169;-65
2022/10/29 00:09:20;;;;;;;20.67;9.90;;;;;;;;;;5095578;28;20592;-66
2022/10/29 00:11:46;;;;;;;23.03;10.53;;;;;;;;;;5095446;28;20672;-65
2022/10/29 00:14:12;;;;;;;20.80;10.57;;;;;;;;;;5095817;28;20682;-65
2022/10/29 00:16:38;;;;;;;21.00;11.20;;;;;;;;;;5095092;28;20675;-66
2022/10/29 00:19:05;;;;;;;21.83;11.20;;;;;;;;;;5095487;28;20589;-65
2022/10/29 00:21:31;;;;;;;21.27;12.00;;;;;;;;;;5078503;28;20201;-66
2022/10/29 00:23:57;;;;;;;20.33;11.33;;;;;;;;;;5096066;28;20204;-66
2022/10/29 00:26:24;;;;;;;22.17;11.23;;;;;;;;;;5096729;28;20191;-66
2022/10/29 00:28:54;;;;;;;25.83;11.03;;;;;;;;;;5096072;28;20188;-66
2022/10/29 00:31:23;;;;;;;20.30;11.00;;;;;;;;;;5096313;28;20200;-66
2022/10/29 00:33:49;;;;;;;22.47;11.53;;;;;;;;;;5096711;28;20744;-66
2022/10/29 00:36:16;;;;;;;25.97;12.43;;;;;;;;;;5097526;28;20262;-65
2022/10/29 00:38:42;;;;;;;23.70;12.33;;;;;;;;;;5096393;28;20190;-65
2022/10/29 00:41:10;;;;;;;20.70;10.97;;;;;;;;;;5096242;28;20279;-65
2022/10/29 00:43:36;;;;;;;19.77;11.33;;;;;;;;;;5077652;28;20203;-66
2022/10/29 00:46:08;;;;;;;21.50;10.33;;;;;;;;;;5077647;28;20172;-66
2022/10/29 00:48:40;;;;;;;21.33;11.40;;;;;;;;;;5095260;28;20173;-66
2022/10/29 00:51:08;;;;;;;21.07;10.97;;;;;;;;;;5076598;28;20667;-65
2022/10/29 00:53:35;;;;;;;20.63;10.37;;;;;;;;;;5077087;28;20197;-66
2022/10/29 00:56:01;;;;;;;27.10;10.93;;;;;;;;;;5076175;28;20241;-66
2022/10/29 00:58:28;;;;;;;17.77;10.33;;;;;;;;;;5094439;28;20211;-66
2022/10/29 01:00:54;;;;;;;21.47;11.33;;;;;;;;;;5094845;28;20197;-66
2022/10/29 01:03:20;;;;;;;20.03;11.80;;;;;;;;;;5094137;28;20197;-65
2022/10/29 01:05:46;;;;;;;19.13;11.23;;;;;;;;;;5094353;28;20184;-66
2022/10/29 01:08:13;;;;;;;18.90;11.03;;;;;;;;;;5094269;28;20660;-66
2022/10/29 01:11:02;;;;;;;21.60;11.23;;;;;;;;;;5075939;28;20534;-66
2022/10/29 01:13:31;;;;;;;22.50;11.37;;;;;;;;;;5094097;28;20279;-66
2022/10/29 01:16:00;;;;;;;23.33;11.67;;;;;;;;;;5094317;28;20181;-66
2022/10/29 01:18:35;;;;;;;21.63;11.07;;;;;;;;;;5093986;28;20169;-65
2022/10/29 01:21:15;;;;;;;22.70;12.37;;;;;;;;;;5094301;28;20329;-66
2022/10/29 01:23:53;;;;;;;20.97;11.00;;;;;;;;;;5075736;28;20207;-66
2022/10/29 01:26:37;;;;;;;21.40;12.00;;;;;;;;;;5075822;28;20181;-66
2022/10/29 01:29:22;;;;;;;31.47;13.17;;;;;;;;;;5093808;28;20540;-66
2022/10/29 01:31:52;;;;;;;19.53;12.73;;;;;;;;;;5093988;28;20291;-65
2022/10/29 01:34:24;;;;;;;26.57;12.00;;;;;;;;;;5075288;28;20215;-64
2022/10/29 01:36:56;;;;;;;23.57;12.53;;;;;;;;;;5075486;28;20177;-64
2022/10/29 01:39:34;;;;;;;22.57;12.53;;;;;;;;;;5094478;28;20173;-64
2022/10/29 01:42:03;;;;;;;23.50;12.73;;;;;;;;;;5093433;28;20200;-64
2022/10/29 01:44:33;;;;;;;17.77;11.77;;;;;;;;;;5093646;28;20265;-64
2022/10/29 01:47:12;;;;;;;24.20;12.27;;;;;;;;;;5076121;28;20172;-66
2022/10/29 01:49:39;;;;;;;25.37;12.03;;;;;;;;;;5093653;28;20164;-64
2022/10/29 01:52:06;;;;;;;27.67;12.30;;;;;;;;;;5075551;28;20194;-63
2022/10/29 01:54:33;;;;;;;21.63;12.17;;;;;;;;;;5093492;28;20193;-64
2022/10/29 01:56:59;;;;;;;29.93;12.00;;;;;;;;;;5093460;28;20177;-64
2022/10/29 01:59:31;;;;;;;30.37;12.10;;;;;;;;;;5093575;28;20640;-64
2022/10/29 02:02:12;;;;;;;23.10;11.90;;;;;;;;;;5075164;28;20205;-65
2022/10/29 02:04:58;;;;;;;21.93;11.63;;;;;;;;;;5093580;28;20292;-64
2022/10/29 02:07:42;;;;;;;20.83;12.40;;;;;;;;;;5093634;28;20158;-64
2022/10/29 02:10:15;;;;;;;22.80;11.80;;;;;;;;;;5093492;28;20181;-64
2022/10/29 02:12:44;;;;;;;22.00;11.50;;;;;;;;;;5075105;28;20212;-64
2022/10/29 02:15:16;;;;;;;21.63;11.93;;;;;;;;;;5093305;28;20567;-64
2022/10/29 02:17:42;;;;;;;22.03;12.03;;;;;;;;;;5075570;28;20169;-64
2022/10/29 02:20:09;;;;;;;23.27;12.03;;;;;;;;;;5093651;28;20184;-64
2022/10/29 02:22:35;;;;;;;25.87;12.57;;;;;;;;;;5075102;28;20211;-65
2022/10/29 02:25:02;;;;;;;26.60;12.87;;;;;;;;;;5075201;28;20207;-66
2022/10/29 02:27:28;;;;;;;19.00;11.33;;;;;;;;;;5074921;28;20192;-65
2022/10/29 02:29:54;;;;;;;21.97;12.00;;;;;;;;;;5093699;28;20264;-65
2022/10/29 02:32:20;;;;;;;26.23;11.97;;;;;;;;;;5093940;28;20181;-65
2022/10/29 02:34:46;;;;;;;22.97;11.87;;;;;;;;;;5093894;28;20213;-66
2022/10/29 02:37:12;;;;;;;19.43;12.10;;;;;;;;;;5093850;28;20183;-66
2022/10/29 02:39:38;;;;;;;24.10;11.83;;;;;;;;;;5094116;28;20288;-66
2022/10/29 02:42:04;;;;;;;23.93;11.27;;;;;;;;;;5094366;28;20232;-66
2022/10/29 02:44:29;;;;;;;22.73;11.87;;;;;;;;;;5099439;22;20356;-68
2022/10/29 02:46:55;;;;;;;20.00;11.33;;;;;;;;;;5053363;28;20205;-68
2022/10/29 02:49:21;;;;;;;22.90;11.60;;;;;;;;;;5053108;28;20182;-69
2022/10/29 02:51:47;;;;;;;18.53;11.80;;;;;;;;;;5053657;28;20182;-69
2022/10/29 02:54:13;;;;;;;21.63;11.70;;;;;;;;;;5056767;28;20229;-69
2022/10/29 02:56:39;;;;;;;26.67;11.67;;;;;;;;;;5056947;28;20574;-68
2022/10/29 02:59:05;;;;;;;19.20;12.13;;;;;;;;;;5056922;28;20300;-69
2022/10/29 03:01:31;;;;;;;30.93;13.53;;;;;;;;;;5056736;28;20214;-69
2022/10/29 03:03:57;;;;;;;30.10;15.17;;;;;;;;;;5038730;28;20285;-68
2022/10/29 03:06:23;;;;;;;22.93;13.30;;;;;;;;;;5038852;28;20186;-70
2022/10/29 03:08:49;;;;;;;24.90;13.50;;;;;;;;;;5057029;28;20171;-67
2022/10/29 03:11:15;;;;;;;22.67;12.50;;;;;;;;;;5056621;28;20262;-68
2022/10/29 03:13:42;;;;;;;26.77;13.40;;;;;;;;;;5056670;28;20615;-68
2022/10/29 03:16:08;;;;;;;24.37;13.07;;;;;;;;;;5038728;28;20209;-68
2022/10/29 03:18:34;;;;;;;28.63;13.30;;;;;;;;;;5038578;28;20643;-68
2022/10/29 03:21:00;;;;;;;20.00;12.43;;;;;;;;;;5056492;28;20251;-68
2022/10/29 03:23:25;;;;;;;18.23;12.03;;;;;;;;;;5056581;28;20202;-68
2022/10/29 03:25:53;;;;;;;28.27;13.90;;;;;;;;;;5056289;28;20577;-68
2022/10/29 03:28:19;;;;;;;27.27;13.80;;;;;;;;;;5038461;28;20189;-69
2022/10/29 03:30:45;;;;;;;26.27;14.10;;;;;;;;;;5038387;28;20186;-69
2022/10/29 03:33:11;;;;;;;21.20;13.93;;;;;;;;;;5056109;28;20540;-68
2022/10/29 03:35:37;;;;;;;28.47;14.30;;;;;;;;;;5056149;28;20194;-70
2022/10/29 03:38:03;;;;;;;31.70;14.53;;;;;;;;;;5056321;28;20175;-69
2022/10/29 03:40:29;;;;;;;25.57;14.10;;;;;;;;;;5056275;28;20185;-70
2022/10/29 03:42:55;;;;;;;22.67;14.63;;;;;;;;;;5038385;28;20248;-68
2022/10/29 03:45:21;;;;;;;27.07;14.07;;;;;;;;;;5056062;28;20206;-67
2022/10/29 03:47:47;;;;;;;24.23;13.47;;;;;;;;;;5056459;28;20174;-69
2022/10/29 03:50:13;;;;;;;27.90;13.63;;;;;;;;;;5056271;28;20217;-68
2022/10/29 03:52:39;;;;;;;22.70;13.00;;;;;;;;;;5056269;28;20655;-69
2022/10/29 03:55:05;;;;;;;28.93;13.10;;;;;;;;;;5038221;28;20202;-69
2022/10/29 03:57:31;;;;;;;28.17;12.93;;;;;;;;;;5038117;28;20584;-69
2022/10/29 03:59:57;;;;;;;20.90;12.27;;;;;;;;;;5056463;28;20190;-70
2022/10/29 04:02:23;;;;;;;33.97;12.47;;;;;;;;;;5057282;28;20269;-68
2022/10/29 04:04:49;;;;;;;26.37;13.37;;;;;;;;;;5060513;28;20205;-70
2022/10/29 04:07:15;;;;;;;29.03;12.70;;;;;;;;;;5070912;28;20171;-69
2022/10/29 04:09:41;;;;;;;22.93;12.93;;;;;;;;;;5070119;28;20174;-69
2022/10/29 04:12:08;;;;;;;24.17;12.63;;;;;;;;;;5069542;28;20178;-70
2022/10/29 04:14:34;;;;;;;32.50;12.87;;;;;;;;;;5042398;28;20199;-67
2022/10/29 04:17:00;;;;;;;27.33;13.53;;;;;;;;;;5055593;28;20704;-69
2022/10/29 04:19:26;;;;;;;22.60;13.07;;;;;;;;;;5056077;28;20183;-69
2022/10/29 04:21:52;;;;;;;30.37;13.57;;;;;;;;;;5037705;28;20230;-71
2022/10/29 04:24:18;;;;;;;29.33;13.13;;;;;;;;;;5037549;28;20589;-69
2022/10/29 04:26:44;;;;;;;23.10;11.90;;;;;;;;;;5037518;28;20174;-67
2022/10/29 04:29:10;;;;;;;24.63;12.47;;;;;;;;;;5037454;28;20174;-69
2022/10/29 04:31:36;;;;;;;19.33;13.20;;;;;;;;;;5055565;28;20185;-68
2022/10/29 04:34:02;;;;;;;27.87;13.13;;;;;;;;;;5055208;28;20209;-69
2022/10/29 04:36:28;;;;;;;27.03;12.87;;;;;;;;;;5054997;28;20262;-67
2022/10/29 04:38:54;;;;;;;26.03;13.60;;;;;;;;;;5055232;28;20618;-67
2022/10/29 04:41:20;;;;;;;24.77;12.47;;;;;;;;;;5055486;28;20213;-67
2022/10/29 04:43:46;;;;;;;21.37;12.60;;;;;;;;;;5037353;28;20210;-67
2022/10/29 04:46:12;;;;;;;21.80;12.47;;;;;;;;;;5037246;28;20174;-68
2022/10/29 04:48:38;;;;;;;26.57;12.73;;;;;;;;;;5037101;28;20252;-68
2022/10/29 04:51:04;;;;;;;25.83;12.40;;;;;;;;;;5054975;28;20635;-68
2022/10/29 04:53:30;;;;;;;27.80;12.47;;;;;;;;;;5054984;28;20171;-68
2022/10/29 04:56:00;;;;;;;22.23;12.30;;;;;;;;;;5055168;28;20178;-69
2022/10/29 04:58:27;;;;;;;22.33;11.67;;;;;;;;;;5036913;28;20186;-69
2022/10/29 05:01:19;;;;;;;25.47;11.43;;;;;;;;;;5054811;28;20265;-68
2022/10/29 05:03:45;;;;;;;21.63;11.70;;;;;;;;;;5050445;28;20289;-67
2022/10/29 05:06:11;;;;;;;20.43;10.97;;;;;;;;;;5054859;28;20646;-69
2022/10/29 05:08:37;;;;;;;21.23;11.10;;;;;;;;;;5054602;28;20658;-68
2022/10/29 05:11:03;;;;;;;21.97;12.23;;;;;;;;;;5036738;28;20182;-68
2022/10/29 05:13:30;;;;;;;25.23;10.90;;;;;;;;;;5037014;28;20179;-68
2022/10/29 05:15:56;;;;;;;17.60;11.00;;;;;;;;;;5053405;28;20643;-68
2022/10/29 05:18:22;;;;;;;24.07;11.03;;;;;;;;;;5054206;28;20175;-68
2022/10/29 05:20:48;;;;;;;18.13;11.27;;;;;;;;;;5054013;28;20253;-69
2022/10/29 05:23:14;;;;;;;22.53;10.90;;;;;;;;;;5054065;28;20201;-68
2022/10/29 05:25:41;;;;;;;19.60;10.20;;;;;;;;;;5036218;28;20230;-68
2022/10/29 05:28:09;;;;;;;20.13;10.97;;;;;;;;;;5054106;28;20185;-68
2022/10/29 05:30:35;;;;;;;22.60;10.80;;;;;;;;;;5054043;28;20252;-69
2022/10/29 05:33:05;;;;;;;24.37;10.47;;;;;;;;;;5036355;28;20225;-69
2022/10/29 05:35:31;;;;;;;22.33;11.37;;;;;;;;;;5054192;28;20202;-68
2022/10/29 05:37:57;;;;;;;19.77;10.63;;;;;;;;;;5054199;28;20234;-68
2022/10/29 05:40:23;;;;;;;18.90;10.47;;;;;;;;;;5054278;28;20175;-68
2022/10/29 05:42:49;;;;;;;20.93;9.80;;;;;;;;;;5054369;28;20206;-68
2022/10/29 05:45:16;;;;;;;25.30;10.87;;;;;;;;;;5053768;28;20690;-68
2022/10/29 05:47:42;;;;;;;21.63;11.33;;;;;;;;;;5053914;28;20184;-68
2022/10/29 05:50:08;;;;;;;26.23;10.43;;;;;;;;;;5036047;28;20214;-68
2022/10/29 05:52:34;;;;;;;21.07;11.17;;;;;;;;;;5035928;28;20189;-68
2022/10/29 05:55:00;;;;;;;19.63;10.90;;;;;;;;;;5054198;28;20202;-69
2022/10/29 05:57:26;;;;;;;32.03;10.90;;;;;;;;;;5053793;28;20178;-68
2022/10/29 05:59:52;;;;;;;21.67;10.33;;;;;;;;;;5036296;28;20231;-69
2022/10/29 06:02:18;;;;;;;21.50;10.07;;;;;;;;;;5053884;28;20296;-68
2022/10/29 06:04:44;;;;;;;16.13;9.93;;;;;;;;;;5053986;28;20201;-68
2022/10/29 06:07:10;;;;;;;17.03;9.80;;;;;;;;;;5053689;28;20352;-67
2022/10/29 06:09:36;;;;;;;28.43;10.53;;;;;;;;;;5053954;28;20539;-68
2022/10/29 06:12:02;;;;;;;20.90;9.47;;;;;;;;;;5053859;28;20639;-68
2022/10/29 06:14:28;;;;;;;19.70;9.57;;;;;;;;;;5053625;28;20202;-68
2022/10/29 06:16:54;;;;;;;20.80;9.40;;;;;;;;;;5035444;28;20716;-68
2022/10/29 06:19:20;;;;;;;20.57;9.70;;;;;;;;;;5053146;28;20209;-68
2022/10/29 06:21:46;;;;;;;22.33;9.60;;;;;;;;;;5035463;28;20206;-68
2022/10/29 06:24:12;;;;;;;14.63;8.37;;;;;;;;;;5053281;28;20194;-68
2022/10/29 06:26:38;;;;;;;21.30;8.60;;;;;;;;;;5054520;28;20673;-67
2022/10/29 06:29:04;;;;;;;17.63;8.90;;;;;;;;;;5039475;28;20189;-68
2022/10/29 06:31:30;;;;;;;16.47;8.83;;;;;;;;;;5057045;28;20182;-68
2022/10/29 06:33:56;;;;;;;18.50;9.30;;;;;;;;;;5057208;28;20537;-68
2022/10/29 06:36:22;;;;;;;18.93;8.93;;;;;;;;;;5057406;28;20228;-68
2022/10/29 06:38:48;;;;;;;18.60;8.73;;;;;;;;;;5039167;28;20190;-68
2022/10/29 06:41:14;;;;;;;17.60;9.43;;;;;;;;;;5056902;28;20748;-68
2022/10/29 06:43:40;;;;;;;18.77;9.00;;;;;;;;;;5056967;28;20205;-68
2022/10/29 06:46:06;;;;;;;15.50;9.00;;;;;;;;;;5057203;28;20224;-68
2022/10/29 06:48:32;;;;;;;20.53;9.90;;;;;;;;;;5056923;28;20179;-68
2022/10/29 06:50:59;;;;;;;19.87;9.47;;;;;;;;;;5057185;28;20182;-68
2022/10/29 06:53:25;;;;;;;20.97;8.50;;;;;;;;;;5038876;28;20183;-68
2022/10/29 06:55:51;;;;;;;21.90;8.67;;;;;;;;;;5056718;28;20178;-68
2022/10/29 06:58:18;;;;;;;19.80;9.30;;;;;;;;;;5056835;28;20201;-67
2022/10/29 07:00:45;;;;;;;23.07;8.67;;;;;;;;;;5056793;28;20171;-68
2022/10/29 07:03:15;;;;;;;21.10;9.63;;;;;;;;;;5056908;28;20221;-68
2022/10/29 07:05:40;;;;;;;23.77;9.43;;;;;;;;;;5056698;28;20198;-68
2022/10/29 07:08:06;;;;;;;16.70;8.77;;;;;;;;;;5057728;28;20272;-68
2022/10/29 07:10:33;;;;;;;21.83;10.20;;;;;;;;;;5039765;28;20179;-67
2022/10/29 07:12:59;;;;;;;19.87;9.27;;;;;;;;;;5057902;28;20205;-68
2022/10/29 07:15:25;;;;;;;17.77;9.23;;;;;;;;;;5057261;28;20202;-68
2022/10/29 07:17:55;;;;;;;16.03;8.37;;;;;;;;;;5057311;28;20185;-68
2022/10/29 07:20:21;;;;;;;20.83;8.80;;;;;;;;;;5057412;28;20178;-68
2022/10/29 07:22:47;;;;;;;18.00;8.70;;;;;;;;;;5057171;28;20241;-68
2022/10/29 07:25:13;;;;;;;18.77;9.03;;;;;;;;;;5056889;28;20248;-68
2022/10/29 07:27:39;;;;;;;27.63;8.30;;;;;;;;;;5057069;28;20193;-68
2022/10/29 07:30:05;;;;;;;19.53;8.63;;;;;;;;;;5038976;28;20599;-68
2022/10/29 07:32:31;;;;;;;17.20;7.53;;;;;;;;;;5057059;28;20186;-68
2022/10/29 07:34:57;;;;;;;17.27;8.10;;;;;;;;;;5056841;28;20198;-68
2022/10/29 07:37:23;;;;;;;20.03;8.63;;;;;;;;;;5056710;28;20202;-68
2022/10/29 07:39:49;;;;;;;16.07;7.00;;;;;;;;;;5038314;28;20178;-68
2022/10/29 07:42:15;;;;;;;16.57;7.60;;;;;;;;;;5056722;28;20281;-68
2022/10/29 07:44:41;;;;;;;16.40;7.53;;;;;;;;;;5056437;28;20607;-68
2022/10/29 07:47:07;;;;;;;25.27;8.00;;;;;;;;;;5056627;28;20658;-68
2022/10/29 07:49:33;;;;;;;16.10;7.83;;;;;;;;;;5038874;28;20185;-69
2022/10/29 07:51:59;;;;;;;16.60;7.07;;;;;;;;;;5038655;28;20193;-68
2022/10/29 07:54:25;;;;;;;19.10;6.90;;;;;;;;;;5056138;28;20199;-68
2022/10/29 07:56:52;;;;;;;18.53;6.60;;;;;;;;;;5056596;28;20696;-69
2022/10/29 07:59:18;;;;;;;20.23;6.57;;;;;;;;;;5055807;28;20178;-69
2022/10/29 08:01:44;;;;;;;17.23;7.10;;;;;;;;;;5056423;28;20213;-69
2022/10/29 08:04:10;;;;;;;15.87;6.83;;;;;;;;;;5056236;28;20190;-69
2022/10/29 08:06:36;;;;;;;12.77;6.43;;;;;;;;;;5055752;28;20183;-69
2022/10/29 08:09:02;;;;;;;15.27;6.20;;;;;;;;;;5055416;28;20180;-69
2022/10/29 08:11:31;;;;;;;16.23;6.70;;;;;;;;;;5055520;28;20240;-69
2022/10/29 08:13:57;;;;;;;12.83;6.70;;;;;;;;;;5037375;28;20576;-69
2022/10/29 08:16:23;;;;;;;13.83;6.70;;;;;;;;;;5055650;28;20181;-69
2022/10/29 08:18:49;;;;;;;19.13;6.27;;;;;;;;;;5055184;28;20194;-69
2022/10/29 08:21:15;;;;;;;14.47;5.93;;;;;;;;;;5054961;28;20213;-69
2022/10/29 08:23:40;;;;;;;15.17;5.97;;;;;;;;;;5055368;28;20226;-69
2022/10/29 08:26:06;;;;;;;18.10;7.03;;;;;;;;;;5055349;28;20240;-69
2022/10/29 08:28:32;;;;;;;14.80;6.40;;;;;;;;;;5055275;28;20174;-71
2022/10/29 08:30:58;;;;;;;19.07;6.07;;;;;;;;;;5037240;28;20183;-69
2022/10/29 08:33:24;;;;;;;17.37;6.20;;;;;;;;;;5055219;28;20646;-69
2022/10/29 08:35:51;;;;;;;14.67;8.20;;;;;;;;;;5054830;28;20178;-69
2022/10/29 08:38:17;;;;;;;11.77;6.43;;;;;;;;;;5037289;28;20182;-69
2022/10/29 08:40:53;;;;;;;16.83;6.30;;;;;;;;;;5055159;28;20179;-69
2022/10/29 08:43:22;;;;;;;15.80;6.80;;;;;;;;;;5054917;28;20196;-69
2022/10/29 08:45:50;;;;;;;17.00;6.60;;;;;;;;;;5055087;28;20182;-69
2022/10/29 08:48:16;;;;;;;15.20;6.57;;;;;;;;;;5079746;22;20238;-67
2022/10/29 08:50:44;;;;;;;16.40;6.50;;;;;;;;;;5054673;28;20718;-68
2022/10/29 08:53:15;;;;;;;13.73;6.73;;;;;;;;;;5036433;28;20716;-68
2022/10/29 08:55:42;;;;;;;12.00;6.97;;;;;;;;;;5054462;28;20166;-66
2022/10/29 08:58:18;;;;;;;15.40;6.20;;;;;;;;;;5054097;28;20697;-66
2022/10/29 09:00:44;;;;;;;17.40;6.70;;;;;;;;;;5054414;28;20178;-66
2022/10/29 09:03:11;;;;;;;12.53;6.50;;;;;;;;;;5036015;28;20297;-66
2022/10/29 09:05:49;;;;;;;19.53;6.57;;;;;;;;;;5054002;28;20178;-66
2022/10/29 09:08:25;;;;;;;14.83;6.07;;;;;;;;;;5036011;28;20216;-67
2022/10/29 09:10:53;;;;;;;12.70;5.97;;;;;;;;;;5054133;28;20162;-66
2022/10/29 09:13:27;;;;;;;29.60;7.20;;;;;;;;;;5035847;28;20178;-67
2022/10/29 09:16:10;;;;;;;20.33;6.80;;;;;;;;;;5035967;28;20178;-67
2022/10/29 09:18:42;;;;;;;13.83;6.17;;;;;;;;;;5053691;28;20194;-66
2022/10/29 09:21:11;;;;;;;15.07;6.27;;;;;;;;;;5053830;28;20206;-67
2022/10/29 09:23:46;;;;;;;15.77;6.13;;;;;;;;;;5054011;28;20174;-67
2022/10/29 09:26:21;;;;;;;15.90;6.87;;;;;;;;;;5053890;28;20541;-67
2022/10/29 09:28:53;;;;;;;21.77;6.70;;;;;;;;;;5053418;28;20225;-67
2022/10/29 09:31:29;;;;;;;23.30;7.13;;;;;;;;;;5053745;28;20178;-67
2022/10/29 09:33:57;;;;;;;19.27;6.40;;;;;;;;;;5053717;28;20208;-67
2022/10/29 09:36:24;;;;;;;15.37;6.83;;;;;;;;;;5053487;28;20647;-67
2022/10/29 09:38:55;;;;;;;17.53;6.30;;;;;;;;;;5053280;28;20198;-67
2022/10/29 09:41:23;;;;;;;19.87;6.80;;;;;;;;;;5053280;28;20260;-67
2022/10/29 09:44:12;;;;;;;12.87;6.47;;;;;;;;;;5053366;28;20646;-67
2022/10/29 09:46:38;;;;;;;9.53;5.90;;;;;;;;;;5042732;28;20329;-67
2022/10/29 09:49:23;;;;;;;15.20;6.47;;;;;;;;;;5053608;28;20662;-67
2022/10/29 09:52:00;;;;;;;19.37;7.40;;;;;;;;;;5053273;28;20200;-67
2022/10/29 09:54:28;;;;;;;12.70;5.13;;;;;;;;;;5053316;28;20205;-68
2022/10/29 09:56:55;;;;;;;14.43;7.03;;;;;;;;;;5053658;28;20194;-68
2022/10/29 09:59:36;;;;;;;15.50;6.97;;;;;;;;;;5035183;28;20674;-67
2022/10/29 10:02:02;;;;;;;17.57;6.57;;;;;;;;;;5034629;28;20201;-68
2022/10/29 10:04:39;;;;;;;11.83;6.17;;;;;;;;;;5053044;28;20545;-68
2022/10/29 10:07:05;;;;;;;16.47;6.73;;;;;;;;;;5035120;28;20713;-68
2022/10/29 10:09:54;;;;;;;19.17;6.50;;;;;;;;;;5053007;28;20185;-68
2022/10/29 10:12:28;;;;;;;17.23;6.60;;;;;;;;;;5042572;28;20210;-66
2022/10/29 10:15:02;;;;;;;21.13;6.47;;;;;;;;;;5035377;28;20182;-67
2022/10/29 10:17:27;;;;;;;18.33;6.87;;;;;;;;;;5035110;28;20292;-68
2022/10/29 10:19:53;;;;;;;22.53;6.67;;;;;;;;;;5053377;28;20187;-67
2022/10/29 10:22:21;;;;;;;15.77;6.20;;;;;;;;;;5052681;28;20574;-68
2022/10/29 10:24:46;;;;;;;17.50;6.83;;;;;;;;;;5034951;28;20210;-69
2022/10/29 10:27:18;;;;;;;19.00;6.70;;;;;;;;;;5052791;28;20226;-68
2022/10/29 10:30:04;;;;;;;16.07;6.90;;;;;;;;;;5052755;28;20639;-68
2022/10/29 10:32:31;;;;;;;18.47;6.50;;;;;;;;;;5053380;28;20182;-68
2022/10/29 10:34:57;;;;;;;14.27;6.33;;;;;;;;;;5052678;28;20180;-69
2022/10/29 10:37:23;;;;;;;14.37;6.37;;;;;;;;;;5052735;28;20203;-68
2022/10/29 10:39:56;;;;;;;17.43;6.30;;;;;;;;;;5034954;28;20647;-68
2022/10/29 10:42:22;;;;;;;14.43;7.17;;;;;;;;;;5034774;28;20213;-68
2022/10/29 10:44:53;;;;;;;27.70;9.20;;;;;;;;;;5052766;28;20174;-68
2022/10/29 10:47:21;;;;;;;17.30;6.40;;;;;;;;;;5035138;28;20225;-71
2022/10/29 10:49:47;;;;;;;14.07;7.03;;;;;;;;;;5034695;28;20174;-69
2022/10/29 10:52:16;;;;;;;20.50;7.07;;;;;;;;;;5052990;28;20656;-69
2022/10/29 10:54:46;;;;;;;18.20;6.93;;;;;;;;;;5052910;28;20233;-69
2022/10/29 10:57:11;;;;;;;28.00;8.40;;;;;;;;;;5052856;28;20202;-68
2022/10/29 10:59:59;;;;;;;21.20;7.27;;;;;;;;;;5052551;28;20189;-69
2022/10/29 11:02:44;;;;;;;22.00;7.53;;;;;;;;;;5052879;28;20295;-69
2022/10/29 11:05:24;;;;;;;18.87;7.50;;;;;;;;;;5034681;28;20178;-68
2022/10/29 11:08:09;;;;;;;22.60;8.23;;;;;;;;;;5034770;28;20194;-70
2022/10/29 11:10:39;;;;;;;16.67;7.17;;;;;;;;;;5052812;28;20241;-68
2022/10/29 11:13:10;;;;;;;26.80;7.27;;;;;;;;;;5053032;28;20177;-66
2022/10/29 11:15:43;;;;;;;20.57;6.37;;;;;;;;;;5056600;28;20174;-68
2022/10/29 11:18:21;;;;;;;16.53;6.33;;;;;;;;;;5056020;28;20697;-68
2022/10/29 11:20:53;;;;;;;13.47;6.47;;;;;;;;;;5056191;28;20661;-68
2022/10/29 11:23:38;;;;;;;16.67;7.17;;;;;;;;;;5055955;28;20171;-68
2022/10/29 11:26:10;;;;;;;18.23;6.70;;;;;;;;;;5056174;28;20167;-68
2022/10/29 11:28:46;;;;;;;14.90;6.47;;;;;;;;;;5056000;28;20211;-67
2022/10/29 11:31:20;;;;;;;20.07;6.70;;;;;;;;;;5037819;28;20186;-68
2022/10/29 11:33:49;;;;;;;17.60;6.20;;;;;;;;;;5056315;28;20186;-68
2022/10/29 11:36:19;;;;;;;24.80;7.83;;;;;;;;;;5055918;28;20183;-68
2022/10/29 11:39:04;;;;;;;19.07;6.33;;;;;;;;;;5055732;28;20198;-68
2022/10/29 11:41:36;;;;;;;24.87;7.40;;;;;;;;;;5055329;28;20571;-68
2022/10/29 11:44:02;;;;;;;23.43;9.70;;;;;;;;;;5037528;28;20257;-68
2022/10/29 11:46:32;;;;;;;16.90;6.63;;;;;;;;;;5055450;28;20313;-68
2022/10/29 11:49:33;;;;;;;16.27;6.20;;;;;;;;;;5037304;28;20542;-68
2022/10/29 11:52:10;;;;;;;23.93;6.37;;;;;;;;;;4958642;28;20189;-68
2022/10/29 11:54:46;;;;;;;14.60;5.83;;;;;;;;;;5027597;28;20598;-68
2022/10/29 11:57:33;;;;;;;15.13;6.10;;;;;;;;;;5037254;28;20206;-68
2022/10/29 11:59:59;;;;;;;15.63;6.17;;;;;;;;;;5055143;28;20174;-68
2022/10/29 12:02:43;;;;;;;18.50;7.00;;;;;;;;;;5054824;28;20275;-68
2022/10/29 12:05:12;;;;;;;16.37;6.53;;;;;;;;;;5037054;28;20200;-68
2022/10/29 12:07:41;;;;;;;20.83;6.83;;;;;;;;;;5036979;28;20662;-68
2022/10/29 12:10:07;;;;;;;25.17;11.50;;;;;;;;;;5037073;28;20220;-68
2022/10/29 12:12:39;;;;;;;11.80;6.47;;;;;;;;;;5054882;28;20701;-67
2022/10/29 12:15:17;;;;;;;14.90;5.87;;;;;;;;;;5037094;28;20183;-68
2022/10/29 12:17:56;;;;;;;18.60;6.20;;;;;;;;;;5054950;28;20194;-68
2022/10/29 12:20:28;;;;;;;12.27;5.80;;;;;;;;;;5037022;28;20225;-68
2022/10/29 12:22:54;;;;;;;23.50;9.80;;;;;;;;;;5054711;28;20285;-68
2022/10/29 12:25:26;;;;;;;15.33;5.93;;;;;;;;;;5056273;28;20198;-67
2022/10/29 12:28:09;;;;;;;16.83;5.97;;;;;;;;;;5056929;28;20222;-68
2022/10/29 12:30:42;;;;;;;14.50;5.97;;;;;;;;;;5055066;28;20249;-68
2022/10/29 12:33:24;;;;;;;12.90;6.27;;;;;;;;;;5055086;28;20174;-68
2022/10/29 12:35:55;;;;;;;18.67;7.53;;;;;;;;;;5054471;28;20608;-68
2022/10/29 12:38:29;;;;;;;20.70;7.07;;;;;;;;;;5054651;28;20580;-68
2022/10/29 12:40:59;;;;;;;16.03;6.60;;;;;;;;;;5054549;28;20167;-68
2022/10/29 12:43:27;;;;;;;20.93;6.60;;;;;;;;;;5036619;28;20516;-68
2022/10/29 12:46:11;;;;;;;27.70;7.33;;;;;;;;;;5055130;28;20167;-69
2022/10/29 12:48:42;;;;;;;26.27;8.40;;;;;;;;;;5054143;28;20229;-67
2022/10/29 12:51:14;;;;;;;17.80;7.30;;;;;;;;;;5036726;28;20167;-69
2022/10/29 12:53:52;;;;;;;18.73;7.17;;;;;;;;;;5054617;28;20586;-70
2022/10/29 12:56:18;;;;;;;18.17;7.03;;;;;;;;;;5054575;28;20174;-70
2022/10/29 12:58:49;;;;;;;21.83;6.40;;;;;;;;;;5054021;28;20671;-69
2022/10/29 13:01:27;;;;;;;17.03;6.97;;;;;;;;;;5054339;28;20163;-69
2022/10/29 13:03:53;;;;;;;21.53;7.07;;;;;;;;;;5053951;28;20212;-69
2022/10/29 13:06:38;;;;;;;17.63;7.03;;;;;;;;;;5053810;28;20258;-69
2022/10/29 13:09:16;;;;;;;18.80;6.97;;;;;;;;;;5054210;28;20257;-67
2022/10/29 13:11:45;;;;;;;17.60;7.67;;;;;;;;;;5053819;28;20265;-69
2022/10/29 13:14:12;;;;;;;20.77;7.60;;;;;;;;;;5035947;28;20182;-68
2022/10/29 13:16:39;;;;;;;12.90;6.43;;;;;;;;;;5035828;28;20273;-68
2022/10/29 13:19:17;;;;;;;15.47;6.17;;;;;;;;;;5053580;28;20178;-68
2022/10/29 13:21:56;;;;;;;21.33;7.03;;;;;;;;;;5053825;28;20194;-69
2022/10/29 13:24:22;;;;;;;17.00;6.10;;;;;;;;;;5053643;28;20175;-69
2022/10/29 13:26:56;;;;;;;14.80;6.07;;;;;;;;;;5053995;28;20174;-69
2022/10/29 13:29:51;;;;;;;21.33;5.60;;;;;;;;;;5053543;28;20210;-69
2022/10/29 13:32:28;;;;;;;21.60;5.93;;;;;;;;;;5036943;28;20281;-69
2022/10/29 13:34:55;;;;;;;12.33;5.90;;;;;;;;;;5053636;28;20162;-68
2022/10/29 13:37:39;;;;;;;17.77;9.60;;;;;;;;;;5052540;28;20206;-67
2022/10/29 13:40:24;;;;;;;18.43;5.57;;;;;;;;;;5053339;28;20531;-67
2022/10/29 13:42:56;;;;;;;18.50;5.57;;;;;;;;;;5053460;28;20198;-67
2022/10/29 13:45:22;;;;;;;17.43;5.60;;;;;;;;;;5053856;28;20169;-67
2022/10/29 13:47:48;;;;;;;14.67;5.73;;;;;;;;;;5053082;28;20213;-67
2022/10/29 13:50:16;;;;;;;22.17;6.20;;;;;;;;;;5035409;28;20178;-67
2022/10/29 13:52:44;;;;;;;14.50;5.87;;;;;;;;;;5053194;28;20186;-66
2022/10/29 13:55:14;;;;;;;16.10;5.90;;;;;;;;;;5053095;28;20209;-69
2022/10/29 13:57:53;;;;;;;19.57;6.37;;;;;;;;;;5035259;28;20289;-68
2022/10/29 14:00:20;;;;;;;18.43;5.60;;;;;;;;;;5053030;28;20177;-67
2022/10/29 14:02:49;;;;;;;17.77;5.97;;;;;;;;;;5053751;28;20216;-69
2022/10/29 14:05:30;;;;;;;15.30;5.83;;;;;;;;;;5053604;28;20178;-67
2022/10/29 14:08:11;;;;;;;15.30;6.20;;;;;;;;;;5052995;28;20202;-69
2022/10/29 14:10:40;;;;;;;17.03;6.30;;;;;;;;;;5053236;28;20178;-67
2022/10/29 14:13:21;;;;;;;14.20;6.30;;;;;;;;;;5052926;28;20190;-67
2022/10/29 14:16:08;;;;;;;12.90;5.43;;;;;;;;;;5052967;28;20257;-67
2022/10/29 14:18:40;;;;;;;15.47;6.37;;;;;;;;;;5053008;28;20198;-68
2022/10/29 14:21:11;;;;;;;16.77;6.63;;;;;;;;;;5052846;28;20296;-67
2022/10/29 14:23:39;;;;;;;18.73;6.67;;;;;;;;;;5052883;28;20175;-67
2022/10/29 14:26:14;;;;;;;15.33;6.40;;;;;;;;;;5034885;28;20170;-67
2022/10/29 14:28:40;;;;;;;17.20;6.93;;;;;;;;;;5052794;28;20194;-68
2022/10/29 14:31:10;;;;;;;20.43;6.37;;;;;;;;;;5034769;28;20178;-67
2022/10/29 14:33:37;;;;;;;12.07;5.73;;;;;;;;;;5053101;28;20250;-67
2022/10/29 14:36:06;;;;;;;14.77;5.80;;;;;;;;;;5034870;28;20214;-67
2022/10/29 14:38:43;;;;;;;14.63;5.83;;;;;;;;;;5053671;28;20198;-67